sensor_id;sensor_type;location;lat;lon;timestamp;P1;durP1;ratioP1;P2;durP2;ratioP2
28613;SDS011;15806;53.548;9.964;2022-11-20T00:00:08;9.83;;;3.07;;
28613;SDS011;15806;53.548;9.964;2022-11-20T00:01:49;5.40;;;2.00;;
28613;SDS011;15806;53.548;9.964;2022-11-20T00:03:30;6.53;;;2.07;;
28613;SDS011;15806;53.548;9.964;2022-11-20T00:05:13;6.67;;;2.43;;
28613;SDS011;15806;53.548;9.964;2022-11-20T00:06:54;9.07;;;2.85;;
28613;SDS011;15806;53.548;9.964;2022-11-20T00:08:34;6.00;;;2.40;;
28613;SDS011;15806;53.548;9.964;2022-11-20T00:10:15;7.38;;;2.55;;
28613;SDS011;15806;53.548;9.964;2022-11-20T00:11:56;5.77;;;1.90;;
28613;SDS011;15806;53.548;9.964;2022-11-20T00:13:36;5.70;;;2.57;;
28613;SDS011;15806;53.548;9.964;2022-11-20T00:15:17;7.45;;;3.38;;
28613;SDS011;15806;53.548;9.964;2022-11-20T00:16:58;7.87;;;2.50;;
28613;SDS011;15806;53.548;9.964;2022-11-20T00:18:38;6.27;;;2.33;;
28613;SDS011;15806;53.548;9.964;2022-11-20T00:20:19;7.10;;;2.47;;
28613;SDS011;15806;53.548;9.964;2022-11-20T00:22:00;3.95;;;2.10;;
28613;SDS011;15806;53.548;9.964;2022-11-20T00:23:41;5.10;;;2.50;;
28613;SDS011;15806;53.548;9.964;2022-11-20T00:25:22;10.50;;;3.30;;
28613;SDS011;15806;53.548;9.964;2022-11-20T00:27:02;6.00;;;2.27;;
28613;SDS011;15806;53.548;9.964;2022-11-20T00:28:43;4.63;;;2.17;;
28613;SDS011;15806;53.548;9.964;2022-11-20T00:30:31;9.38;;;3.03;;
28613;SDS011;15806;53.548;9.964;2022-11-20T00:32:12;10.10;;;2.70;;
28613;SDS011;15806;53.548;9.964;2022-11-20T00:33:52;6.77;;;2.67;;
28613;SDS011;15806;53.548;9.964;2022-11-20T00:35:33;5.53;;;2.47;;
28613;SDS011;15806;53.548;9.964;2022-11-20T00:37:14;9.67;;;3.00;;
28613;SDS011;15806;53.548;9.964;2022-11-20T00:38:55;9.37;;;2.70;;
28613;SDS011;15806;53.548;9.964;2022-11-20T00:40:37;7.55;;;2.45;;
28613;SDS011;15806;53.548;9.964;2022-11-20T00:42:17;16.13;;;5.10;;
28613;SDS011;15806;53.548;9.964;2022-11-20T00:43:58;14.53;;;5.27;;
28613;SDS011;15806;53.548;9.964;2022-11-20T00:45:39;10.77;;;4.13;;
28613;SDS011;15806;53.548;9.964;2022-11-20T00:47:19;16.50;;;5.20;;
28613;SDS011;15806;53.548;9.964;2022-11-20T00:49:00;9.63;;;3.20;;
28613;SDS011;15806;53.548;9.964;2022-11-20T00:50:40;8.67;;;2.47;;
28613;SDS011;15806;53.548;9.964;2022-11-20T00:52:21;11.27;;;4.45;;
28613;SDS011;15806;53.548;9.964;2022-11-20T00:54:02;16.97;;;7.00;;
28613;SDS011;15806;53.548;9.964;2022-11-20T00:55:43;15.57;;;6.57;;
28613;SDS011;15806;53.548;9.964;2022-11-20T00:57:31;13.23;;;3.78;;
28613;SDS011;15806;53.548;9.964;2022-11-20T00:59:12;12.47;;;4.17;;
28613;SDS011;15806;53.548;9.964;2022-11-20T01:00:53;11.52;;;3.78;;
28613;SDS011;15806;53.548;9.964;2022-11-20T01:02:47;9.77;;;4.18;;
28613;SDS011;15806;53.548;9.964;2022-11-20T01:11:24;5.25;;;2.28;;
28613;SDS011;15806;53.548;9.964;2022-11-20T01:13:06;7.20;;;3.20;;
28613;SDS011;15806;53.548;9.964;2022-11-20T01:14:47;4.57;;;2.17;;
28613;SDS011;15806;53.548;9.964;2022-11-20T01:16:32;3.67;;;2.00;;
28613;SDS011;15806;53.548;9.964;2022-11-20T01:18:14;6.90;;;2.50;;
28613;SDS011;15806;53.548;9.964;2022-11-20T01:19:55;4.17;;;2.20;;
28613;SDS011;15806;53.548;9.964;2022-11-20T01:21:44;5.53;;;2.53;;
28613;SDS011;15806;53.548;9.964;2022-11-20T01:23:29;6.43;;;2.33;;
28613;SDS011;15806;53.548;9.964;2022-11-20T01:25:11;4.03;;;2.15;;
28613;SDS011;15806;53.548;9.964;2022-11-20T01:26:51;8.73;;;3.57;;
28613;SDS011;15806;53.548;9.964;2022-11-20T01:28:33;6.93;;;2.25;;
28613;SDS011;15806;53.548;9.964;2022-11-20T01:30:13;5.32;;;2.40;;
28613;SDS011;15806;53.548;9.964;2022-11-20T01:31:56;5.60;;;2.40;;
28613;SDS011;15806;53.548;9.964;2022-11-20T01:33:36;7.73;;;2.17;;
28613;SDS011;15806;53.548;9.964;2022-11-20T01:35:17;5.10;;;2.63;;
28613;SDS011;15806;53.548;9.964;2022-11-20T01:37:00;5.00;;;2.17;;
28613;SDS011;15806;53.548;9.964;2022-11-20T01:38:41;5.38;;;1.65;;
28613;SDS011;15806;53.548;9.964;2022-11-20T01:40:22;3.58;;;2.05;;
28613;SDS011;15806;53.548;9.964;2022-11-20T01:42:02;5.57;;;2.00;;
28613;SDS011;15806;53.548;9.964;2022-11-20T01:43:44;4.35;;;2.00;;
28613;SDS011;15806;53.548;9.964;2022-11-20T01:47:38;5.97;;;2.65;;
28613;SDS011;15806;53.548;9.964;2022-11-20T01:49:24;6.10;;;2.35;;
28613;SDS011;15806;53.548;9.964;2022-11-20T01:53:21;6.20;;;2.72;;
28613;SDS011;15806;53.548;9.964;2022-11-20T01:55:11;7.13;;;2.80;;
28613;SDS011;15806;53.548;9.964;2022-11-20T01:56:55;9.25;;;3.20;;
28613;SDS011;15806;53.548;9.964;2022-11-20T01:58:38;6.72;;;2.78;;
28613;SDS011;15806;53.548;9.964;2022-11-20T02:00:24;9.68;;;3.35;;
28613;SDS011;15806;53.548;9.964;2022-11-20T02:02:04;6.13;;;2.83;;
28613;SDS011;15806;53.548;9.964;2022-11-20T02:03:45;7.57;;;2.73;;
28613;SDS011;15806;53.548;9.964;2022-11-20T02:05:40;11.43;;;3.83;;
28613;SDS011;15806;53.548;9.964;2022-11-20T02:07:25;8.43;;;2.83;;
28613;SDS011;15806;53.548;9.964;2022-11-20T02:09:06;7.53;;;2.08;;
28613;SDS011;15806;53.548;9.964;2022-11-20T02:10:46;6.50;;;2.93;;
28613;SDS011;15806;53.548;9.964;2022-11-20T02:12:27;8.03;;;2.67;;
28613;SDS011;15806;53.548;9.964;2022-11-20T02:14:07;6.40;;;2.40;;
28613;SDS011;15806;53.548;9.964;2022-11-20T02:15:50;5.93;;;2.78;;
28613;SDS011;15806;53.548;9.964;2022-11-20T02:17:32;4.75;;;2.13;;
28613;SDS011;15806;53.548;9.964;2022-11-20T02:19:17;4.97;;;2.00;;
28613;SDS011;15806;53.548;9.964;2022-11-20T02:21:09;6.43;;;2.88;;
28613;SDS011;15806;53.548;9.964;2022-11-20T02:23:12;4.28;;;2.40;;
28613;SDS011;15806;53.548;9.964;2022-11-20T02:25:00;8.73;;;2.55;;
28613;SDS011;15806;53.548;9.964;2022-11-20T02:28:52;6.50;;;2.42;;
28613;SDS011;15806;53.548;9.964;2022-11-20T02:30:34;6.13;;;2.88;;
28613;SDS011;15806;53.548;9.964;2022-11-20T02:32:18;7.07;;;2.33;;
28613;SDS011;15806;53.548;9.964;2022-11-20T02:34:02;5.57;;;2.50;;
28613;SDS011;15806;53.548;9.964;2022-11-20T02:35:43;9.20;;;2.57;;
28613;SDS011;15806;53.548;9.964;2022-11-20T02:37:29;5.00;;;2.50;;
28613;SDS011;15806;53.548;9.964;2022-11-20T02:39:12;6.20;;;2.92;;
28613;SDS011;15806;53.548;9.964;2022-11-20T02:40:53;6.30;;;2.90;;
28613;SDS011;15806;53.548;9.964;2022-11-20T02:42:35;6.63;;;2.80;;
28613;SDS011;15806;53.548;9.964;2022-11-20T02:44:18;7.00;;;3.17;;
28613;SDS011;15806;53.548;9.964;2022-11-20T02:45:59;7.18;;;2.28;;
28613;SDS011;15806;53.548;9.964;2022-11-20T02:47:40;4.73;;;2.57;;
28613;SDS011;15806;53.548;9.964;2022-11-20T02:49:23;9.37;;;3.17;;
28613;SDS011;15806;53.548;9.964;2022-11-20T02:51:06;7.15;;;2.45;;
28613;SDS011;15806;53.548;9.964;2022-11-20T02:52:47;8.05;;;2.53;;
28613;SDS011;15806;53.548;9.964;2022-11-20T02:54:27;6.03;;;2.03;;
28613;SDS011;15806;53.548;9.964;2022-11-20T02:56:08;7.27;;;3.53;;
28613;SDS011;15806;53.548;9.964;2022-11-20T02:57:48;3.93;;;2.33;;
28613;SDS011;15806;53.548;9.964;2022-11-20T02:59:29;4.03;;;2.30;;
28613;SDS011;15806;53.548;9.964;2022-11-20T03:01:10;7.07;;;2.53;;
28613;SDS011;15806;53.548;9.964;2022-11-20T03:02:50;5.47;;;3.27;;
28613;SDS011;15806;53.548;9.964;2022-11-20T03:04:31;4.37;;;2.40;;
28613;SDS011;15806;53.548;9.964;2022-11-20T03:06:11;5.27;;;2.40;;
28613;SDS011;15806;53.548;9.964;2022-11-20T03:07:52;5.13;;;2.43;;
28613;SDS011;15806;53.548;9.964;2022-11-20T03:09:36;6.90;;;2.60;;
28613;SDS011;15806;53.548;9.964;2022-11-20T03:11:16;3.78;;;2.17;;
28613;SDS011;15806;53.548;9.964;2022-11-20T03:12:57;5.33;;;3.10;;
28613;SDS011;15806;53.548;9.964;2022-11-20T03:14:37;5.87;;;2.53;;
28613;SDS011;15806;53.548;9.964;2022-11-20T03:16:27;4.43;;;2.67;;
28613;SDS011;15806;53.548;9.964;2022-11-20T03:18:12;8.38;;;2.78;;
28613;SDS011;15806;53.548;9.964;2022-11-20T03:19:53;5.63;;;2.72;;
28613;SDS011;15806;53.548;9.964;2022-11-20T03:21:33;6.43;;;2.57;;
28613;SDS011;15806;53.548;9.964;2022-11-20T03:23:16;4.55;;;2.30;;
28613;SDS011;15806;53.548;9.964;2022-11-20T03:24:56;5.70;;;2.40;;
28613;SDS011;15806;53.548;9.964;2022-11-20T03:26:40;5.27;;;2.80;;
28613;SDS011;15806;53.548;9.964;2022-11-20T03:28:23;5.88;;;2.78;;
28613;SDS011;15806;53.548;9.964;2022-11-20T03:30:04;4.60;;;2.40;;
28613;SDS011;15806;53.548;9.964;2022-11-20T03:31:45;8.75;;;2.60;;
28613;SDS011;15806;53.548;9.964;2022-11-20T03:33:27;7.00;;;2.33;;
28613;SDS011;15806;53.548;9.964;2022-11-20T03:35:08;5.78;;;2.20;;
28613;SDS011;15806;53.548;9.964;2022-11-20T03:36:52;4.35;;;2.60;;
28613;SDS011;15806;53.548;9.964;2022-11-20T03:38:33;7.40;;;3.33;;
28613;SDS011;15806;53.548;9.964;2022-11-20T03:40:13;6.40;;;2.73;;
28613;SDS011;15806;53.548;9.964;2022-11-20T03:41:54;7.37;;;2.47;;
28613;SDS011;15806;53.548;9.964;2022-11-20T03:43:35;5.50;;;2.27;;
28613;SDS011;15806;53.548;9.964;2022-11-20T03:45:16;5.10;;;2.78;;
28613;SDS011;15806;53.548;9.964;2022-11-20T03:46:58;4.95;;;2.33;;
28613;SDS011;15806;53.548;9.964;2022-11-20T03:48:38;7.33;;;2.80;;
28613;SDS011;15806;53.548;9.964;2022-11-20T03:50:19;5.33;;;2.53;;
28613;SDS011;15806;53.548;9.964;2022-11-20T03:51:59;7.00;;;2.33;;
28613;SDS011;15806;53.548;9.964;2022-11-20T03:53:40;4.67;;;2.47;;
28613;SDS011;15806;53.548;9.964;2022-11-20T03:55:22;8.82;;;2.47;;
28613;SDS011;15806;53.548;9.964;2022-11-20T03:57:02;7.27;;;2.40;;
28613;SDS011;15806;53.548;9.964;2022-11-20T03:58:43;8.30;;;3.13;;
28613;SDS011;15806;53.548;9.964;2022-11-20T04:00:23;6.10;;;2.40;;
28613;SDS011;15806;53.548;9.964;2022-11-20T04:02:04;7.30;;;2.30;;
28613;SDS011;15806;53.548;9.964;2022-11-20T04:03:45;5.50;;;2.23;;
28613;SDS011;15806;53.548;9.964;2022-11-20T04:05:26;5.20;;;2.30;;
28613;SDS011;15806;53.548;9.964;2022-11-20T04:07:07;4.85;;;2.63;;
28613;SDS011;15806;53.548;9.964;2022-11-20T04:08:47;3.87;;;2.20;;
28613;SDS011;15806;53.548;9.964;2022-11-20T04:10:28;7.00;;;2.90;;
28613;SDS011;15806;53.548;9.964;2022-11-20T04:12:09;5.67;;;2.47;;
28613;SDS011;15806;53.548;9.964;2022-11-20T04:13:54;6.70;;;2.17;;
28613;SDS011;15806;53.548;9.964;2022-11-20T04:15:36;6.05;;;2.83;;
28613;SDS011;15806;53.548;9.964;2022-11-20T04:17:17;5.97;;;2.47;;
28613;SDS011;15806;53.548;9.964;2022-11-20T04:18:59;7.20;;;2.40;;
28613;SDS011;15806;53.548;9.964;2022-11-20T04:20:40;4.55;;;2.20;;
28613;SDS011;15806;53.548;9.964;2022-11-20T04:22:21;4.47;;;2.07;;
28613;SDS011;15806;53.548;9.964;2022-11-20T04:24:01;4.30;;;2.10;;
28613;SDS011;15806;53.548;9.964;2022-11-20T04:25:42;4.53;;;1.80;;
28613;SDS011;15806;53.548;9.964;2022-11-20T04:27:23;5.40;;;2.60;;
28613;SDS011;15806;53.548;9.964;2022-11-20T04:29:04;5.90;;;2.33;;
28613;SDS011;15806;53.548;9.964;2022-11-20T04:30:44;4.30;;;1.98;;
28613;SDS011;15806;53.548;9.964;2022-11-20T04:32:25;5.37;;;2.40;;
28613;SDS011;15806;53.548;9.964;2022-11-20T04:34:06;7.30;;;2.70;;
28613;SDS011;15806;53.548;9.964;2022-11-20T04:35:47;4.95;;;1.90;;
28613;SDS011;15806;53.548;9.964;2022-11-20T04:37:27;6.95;;;2.70;;
28613;SDS011;15806;53.548;9.964;2022-11-20T04:39:11;4.20;;;2.70;;
28613;SDS011;15806;53.548;9.964;2022-11-20T04:40:55;7.82;;;2.83;;
28613;SDS011;15806;53.548;9.964;2022-11-20T04:42:40;7.97;;;2.47;;
28613;SDS011;15806;53.548;9.964;2022-11-20T04:44:20;6.87;;;2.07;;
28613;SDS011;15806;53.548;9.964;2022-11-20T04:46:01;5.63;;;2.00;;
28613;SDS011;15806;53.548;9.964;2022-11-20T04:47:42;4.10;;;2.33;;
28613;SDS011;15806;53.548;9.964;2022-11-20T04:49:22;6.07;;;2.70;;
28613;SDS011;15806;53.548;9.964;2022-11-20T04:51:03;5.20;;;2.10;;
28613;SDS011;15806;53.548;9.964;2022-11-20T04:52:44;5.43;;;2.13;;
28613;SDS011;15806;53.548;9.964;2022-11-20T04:54:24;7.17;;;2.47;;
28613;SDS011;15806;53.548;9.964;2022-11-20T04:56:06;6.73;;;2.70;;
28613;SDS011;15806;53.548;9.964;2022-11-20T04:57:49;5.45;;;2.65;;
28613;SDS011;15806;53.548;9.964;2022-11-20T04:59:30;6.22;;;2.30;;
28613;SDS011;15806;53.548;9.964;2022-11-20T05:02:57;4.85;;;2.30;;
28613;SDS011;15806;53.548;9.964;2022-11-20T05:04:37;5.87;;;3.30;;
28613;SDS011;15806;53.548;9.964;2022-11-20T05:06:18;8.10;;;3.03;;
28613;SDS011;15806;53.548;9.964;2022-11-20T05:08:00;5.00;;;2.33;;
28613;SDS011;15806;53.548;9.964;2022-11-20T05:09:41;8.67;;;2.77;;
28613;SDS011;15806;53.548;9.964;2022-11-20T05:11:21;5.53;;;1.90;;
28613;SDS011;15806;53.548;9.964;2022-11-20T05:13:02;5.60;;;2.30;;
28613;SDS011;15806;53.548;9.964;2022-11-20T05:14:42;4.27;;;2.03;;
28613;SDS011;15806;53.548;9.964;2022-11-20T05:16:23;5.40;;;2.60;;
28613;SDS011;15806;53.548;9.964;2022-11-20T05:18:04;4.88;;;2.25;;
28613;SDS011;15806;53.548;9.964;2022-11-20T05:19:45;8.70;;;1.80;;
28613;SDS011;15806;53.548;9.964;2022-11-20T05:21:25;6.30;;;2.30;;
28613;SDS011;15806;53.548;9.964;2022-11-20T05:23:06;4.83;;;2.33;;
28613;SDS011;15806;53.548;9.964;2022-11-20T05:24:46;7.17;;;2.97;;
28613;SDS011;15806;53.548;9.964;2022-11-20T05:26:27;5.87;;;2.13;;
28613;SDS011;15806;53.548;9.964;2022-11-20T05:28:07;4.80;;;2.30;;
28613;SDS011;15806;53.548;9.964;2022-11-20T05:29:48;6.30;;;2.77;;
28613;SDS011;15806;53.548;9.964;2022-11-20T05:31:28;5.23;;;2.20;;
28613;SDS011;15806;53.548;9.964;2022-11-20T05:33:09;5.07;;;2.33;;
28613;SDS011;15806;53.548;9.964;2022-11-20T05:34:49;5.27;;;2.53;;
28613;SDS011;15806;53.548;9.964;2022-11-20T05:36:30;6.77;;;2.40;;
28613;SDS011;15806;53.548;9.964;2022-11-20T05:38:11;7.53;;;3.03;;
28613;SDS011;15806;53.548;9.964;2022-11-20T05:39:52;7.47;;;2.77;;
28613;SDS011;15806;53.548;9.964;2022-11-20T05:41:32;5.20;;;2.77;;
28613;SDS011;15806;53.548;9.964;2022-11-20T05:43:13;5.20;;;2.92;;
28613;SDS011;15806;53.548;9.964;2022-11-20T05:44:53;8.80;;;3.17;;
28613;SDS011;15806;53.548;9.964;2022-11-20T05:46:34;7.23;;;3.60;;
28613;SDS011;15806;53.548;9.964;2022-11-20T05:48:14;4.17;;;2.63;;
28613;SDS011;15806;53.548;9.964;2022-11-20T05:49:55;10.70;;;3.40;;
28613;SDS011;15806;53.548;9.964;2022-11-20T05:51:35;6.53;;;2.83;;
28613;SDS011;15806;53.548;9.964;2022-11-20T05:53:16;8.40;;;2.60;;
28613;SDS011;15806;53.548;9.964;2022-11-20T05:54:57;7.35;;;3.13;;
28613;SDS011;15806;53.548;9.964;2022-11-20T05:56:37;7.27;;;3.03;;
28613;SDS011;15806;53.548;9.964;2022-11-20T05:58:18;7.13;;;2.80;;
28613;SDS011;15806;53.548;9.964;2022-11-20T05:59:58;5.13;;;2.60;;
28613;SDS011;15806;53.548;9.964;2022-11-20T06:01:39;6.60;;;2.80;;
28613;SDS011;15806;53.548;9.964;2022-11-20T06:03:19;4.30;;;2.93;;
28613;SDS011;15806;53.548;9.964;2022-11-20T06:05:00;5.53;;;3.00;;
28613;SDS011;15806;53.548;9.964;2022-11-20T06:06:41;6.33;;;3.23;;
28613;SDS011;15806;53.548;9.964;2022-11-20T06:08:21;7.37;;;3.07;;
28613;SDS011;15806;53.548;9.964;2022-11-20T06:10:02;6.23;;;3.20;;
28613;SDS011;15806;53.548;9.964;2022-11-20T06:11:43;7.85;;;3.72;;
28613;SDS011;15806;53.548;9.964;2022-11-20T06:13:23;9.13;;;2.90;;
28613;SDS011;15806;53.548;9.964;2022-11-20T06:15:04;7.65;;;2.92;;
28613;SDS011;15806;53.548;9.964;2022-11-20T06:18:27;9.38;;;3.70;;
28613;SDS011;15806;53.548;9.964;2022-11-20T06:20:08;8.13;;;3.33;;
28613;SDS011;15806;53.548;9.964;2022-11-20T06:21:49;10.02;;;3.53;;
28613;SDS011;15806;53.548;9.964;2022-11-20T06:23:31;9.93;;;3.70;;
28613;SDS011;15806;53.548;9.964;2022-11-20T06:25:12;9.80;;;3.85;;
28613;SDS011;15806;53.548;9.964;2022-11-20T06:26:53;7.07;;;3.03;;
28613;SDS011;15806;53.548;9.964;2022-11-20T06:28:34;8.00;;;3.27;;
28613;SDS011;15806;53.548;9.964;2022-11-20T06:30:15;7.38;;;3.20;;
28613;SDS011;15806;53.548;9.964;2022-11-20T06:31:55;8.83;;;3.23;;
28613;SDS011;15806;53.548;9.964;2022-11-20T06:33:36;10.37;;;3.43;;
28613;SDS011;15806;53.548;9.964;2022-11-20T06:35:16;6.93;;;3.43;;
28613;SDS011;15806;53.548;9.964;2022-11-20T06:36:57;9.83;;;4.47;;
28613;SDS011;15806;53.548;9.964;2022-11-20T06:38:38;9.73;;;3.17;;
28613;SDS011;15806;53.548;9.964;2022-11-20T06:40:19;7.32;;;3.25;;
28613;SDS011;15806;53.548;9.964;2022-11-20T06:41:59;6.33;;;3.10;;
28613;SDS011;15806;53.548;9.964;2022-11-20T06:43:40;6.77;;;2.70;;
28613;SDS011;15806;53.548;9.964;2022-11-20T06:45:21;6.38;;;3.60;;
28613;SDS011;15806;53.548;9.964;2022-11-20T06:47:02;4.93;;;2.60;;
28613;SDS011;15806;53.548;9.964;2022-11-20T06:48:42;10.80;;;2.90;;
28613;SDS011;15806;53.548;9.964;2022-11-20T06:50:23;10.90;;;4.40;;
28613;SDS011;15806;53.548;9.964;2022-11-20T06:52:04;4.73;;;2.27;;
28613;SDS011;15806;53.548;9.964;2022-11-20T06:53:44;8.87;;;3.57;;
28613;SDS011;15806;53.548;9.964;2022-11-20T06:55:25;5.83;;;2.70;;
28613;SDS011;15806;53.548;9.964;2022-11-20T06:57:06;7.17;;;2.67;;
28613;SDS011;15806;53.548;9.964;2022-11-20T06:58:46;7.90;;;3.37;;
28613;SDS011;15806;53.548;9.964;2022-11-20T07:00:27;8.33;;;3.20;;
28613;SDS011;15806;53.548;9.964;2022-11-20T07:02:09;5.57;;;2.73;;
28613;SDS011;15806;53.548;9.964;2022-11-20T07:03:50;5.35;;;2.70;;
28613;SDS011;15806;53.548;9.964;2022-11-20T07:05:31;5.27;;;2.50;;
28613;SDS011;15806;53.548;9.964;2022-11-20T07:07:12;6.82;;;2.70;;
28613;SDS011;15806;53.548;9.964;2022-11-20T07:08:52;6.93;;;2.60;;
28613;SDS011;15806;53.548;9.964;2022-11-20T07:10:33;7.13;;;3.87;;
28613;SDS011;15806;53.548;9.964;2022-11-20T07:12:14;6.00;;;2.53;;
28613;SDS011;15806;53.548;9.964;2022-11-20T07:13:54;6.20;;;2.67;;
28613;SDS011;15806;53.548;9.964;2022-11-20T07:15:36;4.97;;;2.70;;
28613;SDS011;15806;53.548;9.964;2022-11-20T07:17:17;5.07;;;2.40;;
28613;SDS011;15806;53.548;9.964;2022-11-20T07:18:57;5.80;;;2.80;;
28613;SDS011;15806;53.548;9.964;2022-11-20T07:20:38;7.40;;;2.43;;
28613;SDS011;15806;53.548;9.964;2022-11-20T07:22:18;6.97;;;2.90;;
28613;SDS011;15806;53.548;9.964;2022-11-20T07:23:59;5.40;;;2.47;;
28613;SDS011;15806;53.548;9.964;2022-11-20T07:25:39;5.83;;;2.70;;
28613;SDS011;15806;53.548;9.964;2022-11-20T07:27:20;5.93;;;2.30;;
28613;SDS011;15806;53.548;9.964;2022-11-20T07:29:00;7.57;;;2.63;;
28613;SDS011;15806;53.548;9.964;2022-11-20T07:30:41;8.33;;;2.77;;
28613;SDS011;15806;53.548;9.964;2022-11-20T07:32:21;6.10;;;3.10;;
28613;SDS011;15806;53.548;9.964;2022-11-20T07:34:02;6.72;;;3.15;;
28613;SDS011;15806;53.548;9.964;2022-11-20T07:35:43;6.47;;;2.97;;
28613;SDS011;15806;53.548;9.964;2022-11-20T07:37:23;7.90;;;2.90;;
28613;SDS011;15806;53.548;9.964;2022-11-20T07:39:04;4.93;;;2.40;;
28613;SDS011;15806;53.548;9.964;2022-11-20T07:40:44;4.17;;;2.20;;
28613;SDS011;15806;53.548;9.964;2022-11-20T07:42:25;5.70;;;2.77;;
28613;SDS011;15806;53.548;9.964;2022-11-20T07:44:06;6.50;;;2.83;;
28613;SDS011;15806;53.548;9.964;2022-11-20T07:45:46;7.10;;;3.43;;
28613;SDS011;15806;53.548;9.964;2022-11-20T07:47:27;5.20;;;3.00;;
28613;SDS011;15806;53.548;9.964;2022-11-20T07:49:07;6.80;;;2.93;;
28613;SDS011;15806;53.548;9.964;2022-11-20T07:50:48;6.97;;;2.80;;
28613;SDS011;15806;53.548;9.964;2022-11-20T07:52:28;6.60;;;3.10;;
28613;SDS011;15806;53.548;9.964;2022-11-20T07:54:09;4.67;;;2.43;;
28613;SDS011;15806;53.548;9.964;2022-11-20T07:55:49;8.93;;;2.97;;
28613;SDS011;15806;53.548;9.964;2022-11-20T07:57:30;7.53;;;3.20;;
28613;SDS011;15806;53.548;9.964;2022-11-20T07:59:10;7.60;;;3.50;;
28613;SDS011;15806;53.548;9.964;2022-11-20T08:00:51;8.40;;;2.97;;
28613;SDS011;15806;53.548;9.964;2022-11-20T08:02:31;9.77;;;3.17;;
28613;SDS011;15806;53.548;9.964;2022-11-20T08:04:12;5.43;;;2.87;;
28613;SDS011;15806;53.548;9.964;2022-11-20T08:05:52;5.27;;;2.50;;
28613;SDS011;15806;53.548;9.964;2022-11-20T08:07:37;6.33;;;2.57;;
28613;SDS011;15806;53.548;9.964;2022-11-20T08:09:18;5.63;;;3.20;;
28613;SDS011;15806;53.548;9.964;2022-11-20T08:10:58;9.83;;;3.90;;
28613;SDS011;15806;53.548;9.964;2022-11-20T08:12:45;9.60;;;2.93;;
28613;SDS011;15806;53.548;9.964;2022-11-20T08:14:27;4.82;;;2.58;;
28613;SDS011;15806;53.548;9.964;2022-11-20T08:16:07;5.37;;;2.73;;
28613;SDS011;15806;53.548;9.964;2022-11-20T08:17:48;6.30;;;2.70;;
28613;SDS011;15806;53.548;9.964;2022-11-20T08:19:28;4.73;;;2.67;;
28613;SDS011;15806;53.548;9.964;2022-11-20T08:21:09;5.87;;;3.40;;
28613;SDS011;15806;53.548;9.964;2022-11-20T08:22:49;7.80;;;3.37;;
28613;SDS011;15806;53.548;9.964;2022-11-20T08:24:30;7.40;;;3.27;;
28613;SDS011;15806;53.548;9.964;2022-11-20T08:26:10;9.27;;;3.83;;
28613;SDS011;15806;53.548;9.964;2022-11-20T08:27:51;7.27;;;3.03;;
28613;SDS011;15806;53.548;9.964;2022-11-20T08:29:31;5.70;;;2.80;;
28613;SDS011;15806;53.548;9.964;2022-11-20T08:31:12;5.07;;;2.60;;
28613;SDS011;15806;53.548;9.964;2022-11-20T08:32:52;8.63;;;3.10;;
28613;SDS011;15806;53.548;9.964;2022-11-20T08:34:34;5.80;;;2.65;;
28613;SDS011;15806;53.548;9.964;2022-11-20T08:36:14;5.80;;;2.87;;
28613;SDS011;15806;53.548;9.964;2022-11-20T08:37:55;5.20;;;2.80;;
28613;SDS011;15806;53.548;9.964;2022-11-20T08:39:35;4.77;;;2.50;;
28613;SDS011;15806;53.548;9.964;2022-11-20T08:41:16;4.53;;;2.50;;
28613;SDS011;15806;53.548;9.964;2022-11-20T08:42:57;3.55;;;2.00;;
28613;SDS011;15806;53.548;9.964;2022-11-20T08:44:37;5.20;;;2.47;;
28613;SDS011;15806;53.548;9.964;2022-11-20T08:46:18;6.63;;;2.20;;
28613;SDS011;15806;53.548;9.964;2022-11-20T08:48:02;3.50;;;1.92;;
28613;SDS011;15806;53.548;9.964;2022-11-20T08:49:43;7.25;;;2.08;;
28613;SDS011;15806;53.548;9.964;2022-11-20T08:51:23;3.20;;;1.70;;
28613;SDS011;15806;53.548;9.964;2022-11-20T08:53:04;3.70;;;2.00;;
28613;SDS011;15806;53.548;9.964;2022-11-20T08:54:45;4.13;;;2.13;;
28613;SDS011;15806;53.548;9.964;2022-11-20T08:56:25;3.60;;;1.60;;
28613;SDS011;15806;53.548;9.964;2022-11-20T08:58:06;5.70;;;1.43;;
28613;SDS011;15806;53.548;9.964;2022-11-20T08:59:47;5.30;;;1.90;;
28613;SDS011;15806;53.548;9.964;2022-11-20T09:01:28;3.37;;;1.83;;
28613;SDS011;15806;53.548;9.964;2022-11-20T09:03:09;8.25;;;2.50;;
28613;SDS011;15806;53.548;9.964;2022-11-20T09:04:49;6.77;;;2.33;;
28613;SDS011;15806;53.548;9.964;2022-11-20T09:06:30;3.67;;;1.83;;
28613;SDS011;15806;53.548;9.964;2022-11-20T09:08:10;6.90;;;2.50;;
28613;SDS011;15806;53.548;9.964;2022-11-20T09:09:51;7.67;;;2.30;;
28613;SDS011;15806;53.548;9.964;2022-11-20T09:11:32;3.90;;;1.80;;
28613;SDS011;15806;53.548;9.964;2022-11-20T09:13:12;5.30;;;2.20;;
28613;SDS011;15806;53.548;9.964;2022-11-20T09:14:53;5.67;;;2.20;;
28613;SDS011;15806;53.548;9.964;2022-11-20T09:16:33;4.07;;;2.00;;
28613;SDS011;15806;53.548;9.964;2022-11-20T09:18:14;3.30;;;1.77;;
28613;SDS011;15806;53.548;9.964;2022-11-20T09:19:54;4.27;;;1.87;;
28613;SDS011;15806;53.548;9.964;2022-11-20T09:21:35;5.93;;;2.37;;
28613;SDS011;15806;53.548;9.964;2022-11-20T09:23:15;6.60;;;2.07;;
28613;SDS011;15806;53.548;9.964;2022-11-20T09:24:56;4.97;;;2.08;;
28613;SDS011;15806;53.548;9.964;2022-11-20T09:26:37;3.57;;;1.80;;
28613;SDS011;15806;53.548;9.964;2022-11-20T09:28:18;5.37;;;1.90;;
28613;SDS011;15806;53.548;9.964;2022-11-20T09:29:58;5.45;;;2.33;;
28613;SDS011;15806;53.548;9.964;2022-11-20T09:31:39;3.73;;;1.80;;
28613;SDS011;15806;53.548;9.964;2022-11-20T09:33:19;8.03;;;2.37;;
28613;SDS011;15806;53.548;9.964;2022-11-20T09:35:00;3.63;;;1.67;;
28613;SDS011;15806;53.548;9.964;2022-11-20T09:36:41;4.13;;;1.97;;
28613;SDS011;15806;53.548;9.964;2022-11-20T09:38:21;6.53;;;2.17;;
28613;SDS011;15806;53.548;9.964;2022-11-20T09:40:02;3.83;;;1.93;;
28613;SDS011;15806;53.548;9.964;2022-11-20T09:43:44;2.60;;;1.40;;
28613;SDS011;15806;53.548;9.964;2022-11-20T09:45:58;4.22;;;1.60;;
28613;SDS011;15806;53.548;9.964;2022-11-20T09:47:51;3.42;;;1.75;;
28613;SDS011;15806;53.548;9.964;2022-11-20T09:56:13;6.18;;;1.80;;
28613;SDS011;15806;53.548;9.964;2022-11-20T09:57:54;5.28;;;1.88;;
28613;SDS011;15806;53.548;9.964;2022-11-20T10:01:19;3.10;;;1.88;;
28613;SDS011;15806;53.548;9.964;2022-11-20T10:03:11;3.50;;;1.50;;
28613;SDS011;15806;53.548;9.964;2022-11-20T10:06:56;3.03;;;1.60;;
28613;SDS011;15806;53.548;9.964;2022-11-20T10:08:55;3.10;;;1.50;;
28613;SDS011;15806;53.548;9.964;2022-11-20T10:13:17;3.67;;;1.75;;
28613;SDS011;15806;53.548;9.964;2022-11-20T10:17:13;5.90;;;2.15;;
28613;SDS011;15806;53.548;9.964;2022-11-20T10:23:20;2.88;;;1.48;;
28613;SDS011;15806;53.548;9.964;2022-11-20T10:25:16;4.93;;;2.00;;
28613;SDS011;15806;53.548;9.964;2022-11-20T10:29:07;3.55;;;1.90;;
28613;SDS011;15806;53.548;9.964;2022-11-20T10:30:52;2.22;;;1.40;;
28613;SDS011;15806;53.548;9.964;2022-11-20T10:32:58;2.50;;;1.40;;
28613;SDS011;15806;53.548;9.964;2022-11-20T10:34:54;4.03;;;1.60;;
28613;SDS011;15806;53.548;9.964;2022-11-20T10:36:46;3.45;;;1.30;;
28613;SDS011;15806;53.548;9.964;2022-11-20T10:38:48;2.72;;;1.40;;
28613;SDS011;15806;53.548;9.964;2022-11-20T10:40:42;3.90;;;1.80;;
28613;SDS011;15806;53.548;9.964;2022-11-20T10:42:30;4.10;;;2.15;;
28613;SDS011;15806;53.548;9.964;2022-11-20T10:44:19;3.20;;;1.92;;
28613;SDS011;15806;53.548;9.964;2022-11-20T10:46:08;2.78;;;2.10;;
28613;SDS011;15806;53.548;9.964;2022-11-20T10:49:56;5.35;;;2.60;;
28613;SDS011;15806;53.548;9.964;2022-11-20T10:51:55;5.55;;;2.00;;
28613;SDS011;15806;53.548;9.964;2022-11-20T10:54:03;2.85;;;1.80;;
28613;SDS011;15806;53.548;9.964;2022-11-20T10:58:14;5.55;;;2.58;;
28613;SDS011;15806;53.548;9.964;2022-11-20T11:00:06;4.40;;;2.20;;